createdAt,value
2018-07-17T00:00:53.167Z,9.57
2018-07-17T00:03:22.421Z,9.27
2018-07-17T00:05:51.627Z,8.80
2018-07-17T00:08:20.802Z,9.13
2018-07-17T00:10:50.017Z,9.00
2018-07-17T00:13:19.172Z,8.83
2018-07-17T00:15:48.251Z,9.53
2018-07-17T00:18:17.372Z,9.13
2018-07-17T00:20:46.816Z,8.17
2018-07-17T00:23:15.915Z,8.80
2018-07-17T00:25:45.162Z,9.47
2018-07-17T00:28:14.301Z,9.57
2018-07-17T00:30:43.459Z,9.63
2018-07-17T00:33:12.653Z,9.30
2018-07-17T00:35:41.839Z,10.00
2018-07-17T00:38:11.327Z,9.13
2018-07-17T00:40:40.459Z,10.43
2018-07-17T00:43:09.591Z,9.63
2018-07-17T00:45:38.824Z,8.83
2018-07-17T00:48:08.104Z,10.57
2018-07-17T00:50:37.345Z,9.30
2018-07-17T00:53:06.567Z,10.30
2018-07-17T00:55:35.676Z,11.60
2018-07-17T00:58:04.811Z,10.57
2018-07-17T01:00:39.443Z,11.63
2018-07-17T01:03:13.967Z,11.00
2018-07-17T01:05:48.585Z,12.40
2018-07-17T01:08:23.188Z,10.87
2018-07-17T01:10:57.579Z,12.33
2018-07-17T01:13:37.247Z,12.13
2018-07-17T01:16:06.473Z,11.70
2018-07-17T01:18:35.569Z,11.50
2018-07-17T01:21:04.713Z,11.73
2018-07-17T01:23:33.853Z,12.20
2018-07-17T01:26:03.069Z,11.00
2018-07-17T01:28:32.163Z,11.77
2018-07-17T01:31:01.292Z,12.60
2018-07-17T01:33:30.475Z,10.20
2018-07-17T01:35:59.626Z,10.90
2018-07-17T01:38:28.858Z,12.07
2018-07-17T01:40:57.955Z,12.00
2018-07-17T01:43:27.073Z,13.10
2018-07-17T01:45:56.276Z,11.70
2018-07-17T01:48:25.409Z,11.93
2018-07-17T01:50:54.578Z,13.00
2018-07-17T01:53:23.703Z,12.07
2018-07-17T01:55:52.808Z,12.43
2018-07-17T01:58:21.926Z,11.80
2018-07-17T02:00:51.018Z,12.63
2018-07-17T02:03:20.156Z,11.77
2018-07-17T02:05:50.012Z,12.57
2018-07-17T02:08:19.140Z,13.87
2018-07-17T02:10:48.268Z,14.20
2018-07-17T02:13:17.399Z,14.97
2018-07-17T02:15:46.527Z,15.07
2018-07-17T02:18:15.711Z,13.97
2018-07-17T02:20:44.831Z,12.67
2018-07-17T02:23:13.961Z,13.10
2018-07-17T02:25:43.194Z,13.47
2018-07-17T02:28:11.975Z,15.07
2018-07-17T02:30:41.072Z,14.40
2018-07-17T02:33:10.206Z,14.10
2018-07-17T02:35:39.339Z,15.17
2018-07-17T02:38:08.441Z,15.43
2018-07-17T02:40:37.543Z,15.50
2018-07-17T02:43:06.795Z,15.20
2018-07-17T02:45:35.960Z,14.43
2018-07-17T02:48:05.257Z,15.20
2018-07-17T02:50:34.376Z,12.77
2018-07-17T02:53:06.460Z,13.03
2018-07-17T02:55:35.614Z,13.47
2018-07-17T02:58:04.764Z,13.93
2018-07-17T03:00:33.900Z,12.73
2018-07-17T03:03:03.967Z,11.53
2018-07-17T03:05:33.126Z,11.37
2018-07-17T03:08:02.324Z,13.60
2018-07-17T03:10:31.524Z,15.57
2018-07-17T03:13:00.332Z,15.97
2018-07-17T03:15:29.401Z,16.03
2018-07-17T03:17:58.526Z,16.23
2018-07-17T03:20:27.685Z,14.40
2018-07-17T03:22:57.462Z,14.43
2018-07-17T03:25:26.621Z,11.70
2018-07-17T03:27:55.757Z,11.87
2018-07-17T03:30:24.958Z,11.30
2018-07-17T03:32:54.164Z,12.57
2018-07-17T03:35:23.389Z,13.20
2018-07-17T03:37:52.545Z,13.70
2018-07-17T03:40:21.643Z,11.60
2018-07-17T03:42:50.762Z,11.43
2018-07-17T03:45:19.936Z,10.67
2018-07-17T03:47:49.140Z,11.60
2018-07-17T03:50:18.288Z,11.43
2018-07-17T03:52:47.984Z,13.30
2018-07-17T03:55:17.179Z,13.20
2018-07-17T03:57:46.104Z,14.50
2018-07-17T04:00:15.191Z,12.97
2018-07-17T04:02:44.466Z,13.83
2018-07-17T04:05:13.516Z,13.43
2018-07-17T04:07:42.597Z,12.87
2018-07-17T04:10:11.935Z,11.80
2018-07-17T04:12:41.108Z,12.60
2018-07-17T04:15:10.268Z,11.70
2018-07-17T04:17:39.512Z,12.77
2018-07-17T04:20:08.710Z,13.93
2018-07-17T04:22:37.814Z,21.43
2018-07-17T04:25:06.993Z,20.43
2018-07-17T04:27:36.107Z,20.77
2018-07-17T04:30:05.324Z,21.10
2018-07-17T04:32:34.505Z,18.60
2018-07-17T04:35:03.681Z,22.10
2018-07-17T04:37:32.808Z,24.83
2018-07-17T04:40:01.970Z,22.57
2018-07-17T04:42:31.171Z,22.90
2018-07-17T04:45:00.327Z,22.77
2018-07-17T04:47:29.513Z,22.63
2018-07-17T04:49:58.747Z,22.73
2018-07-17T04:52:27.850Z,21.30
2018-07-17T04:54:57.133Z,22.03
2018-07-17T04:57:26.823Z,21.87
2018-07-17T04:59:55.997Z,21.53
2018-07-17T05:02:25.288Z,21.97
2018-07-17T05:04:54.424Z,22.07
2018-07-17T05:07:23.560Z,21.53
2018-07-17T05:09:52.710Z,19.60
2018-07-17T05:12:21.964Z,20.50
2018-07-17T05:14:51.049Z,19.60
2018-07-17T05:17:20.179Z,21.73
2018-07-17T05:19:49.324Z,21.07
2018-07-17T05:22:18.451Z,18.30
2018-07-17T05:24:47.554Z,17.47
2018-07-17T05:27:17.141Z,17.80
2018-07-17T05:29:46.225Z,20.07
2018-07-17T05:32:15.361Z,18.47
2018-07-17T05:34:44.719Z,18.13
2018-07-17T05:37:13.904Z,18.60
2018-07-17T05:39:43.248Z,18.00
2018-07-17T05:42:12.434Z,18.30
2018-07-17T05:44:41.545Z,17.10
2018-07-17T05:47:10.875Z,17.67
2018-07-17T05:49:40.040Z,18.93
2018-07-17T05:52:09.238Z,20.13
2018-07-17T05:54:38.480Z,19.50
2018-07-17T05:57:07.696Z,19.60
2018-07-17T05:59:36.932Z,17.80
2018-07-17T06:02:06.699Z,17.33
2018-07-17T06:04:35.822Z,17.10
2018-07-17T06:07:05.039Z,15.53
2018-07-17T06:09:34.138Z,16.27
2018-07-17T06:12:03.497Z,16.53
2018-07-17T06:14:32.636Z,16.93
2018-07-17T06:17:01.802Z,16.53
2018-07-17T06:19:31.122Z,16.60
2018-07-17T06:22:00.035Z,15.63
2018-07-17T06:24:30.145Z,16.47
2018-07-17T06:26:59.282Z,17.10
2018-07-17T06:29:28.400Z,16.90
2018-07-17T06:31:57.526Z,16.70
2018-07-17T06:34:26.699Z,15.57
2018-07-17T06:36:55.855Z,14.90
2018-07-17T06:39:25.045Z,14.63
2018-07-17T06:41:54.160Z,14.97
2018-07-17T06:44:23.344Z,14.67
2018-07-17T06:46:52.791Z,14.50
2018-07-17T06:49:21.922Z,14.70
2018-07-17T06:51:51.055Z,13.80
2018-07-17T06:54:20.201Z,14.20
2018-07-17T06:56:49.481Z,14.40
2018-07-17T06:59:18.675Z,14.23
2018-07-17T07:01:47.892Z,13.70
2018-07-17T07:04:17.099Z,13.53
2018-07-17T07:06:46.304Z,14.50
2018-07-17T07:09:15.455Z,13.87
2018-07-17T07:11:44.663Z,13.20
2018-07-17T07:14:13.899Z,13.17
2018-07-17T07:16:43.157Z,12.47
2018-07-17T07:19:12.483Z,12.43
2018-07-17T07:21:41.664Z,12.50
2018-07-17T07:24:10.836Z,11.73
2018-07-17T07:26:40.090Z,12.70
2018-07-17T07:29:10.634Z,10.60
2018-07-17T07:31:39.816Z,11.33
2018-07-17T07:34:09.752Z,10.50
2018-07-17T07:36:38.584Z,10.43
2018-07-17T07:39:09.315Z,10.70
2018-07-17T07:41:38.400Z,12.50
2018-07-17T07:44:07.694Z,10.90
2018-07-17T07:46:36.856Z,10.73
2018-07-17T07:49:06.053Z,10.60
2018-07-17T07:51:35.179Z,11.20
2018-07-17T07:54:04.433Z,10.10
2018-07-17T07:56:34.300Z,9.93
2018-07-17T07:59:03.494Z,9.17
2018-07-17T08:01:33.281Z,7.93
2018-07-17T08:04:02.251Z,8.77
2018-07-17T08:06:31.277Z,8.43
2018-07-17T08:09:00.922Z,9.60
2018-07-17T08:11:30.142Z,8.67
2018-07-17T08:13:59.240Z,8.30
2018-07-17T08:16:28.456Z,8.07
2018-07-17T08:18:57.287Z,8.13
2018-07-17T08:21:33.224Z,8.90
2018-07-17T08:24:02.397Z,9.40
2018-07-17T08:26:31.631Z,8.30
2018-07-17T08:29:00.988Z,10.07
2018-07-17T08:31:30.165Z,9.93
2018-07-17T08:33:59.396Z,8.97
2018-07-17T08:36:28.696Z,8.00
2018-07-17T08:38:57.862Z,8.80
2018-07-17T08:41:26.740Z,7.90
2018-07-17T08:43:55.815Z,8.00
2018-07-17T08:46:24.993Z,7.37
2018-07-17T08:48:54.167Z,7.17
2018-07-17T08:51:23.422Z,7.03
2018-07-17T08:53:52.664Z,6.53
2018-07-17T08:56:21.849Z,6.73
2018-07-17T08:58:51.772Z,7.30
2018-07-17T09:01:20.989Z,6.60
2018-07-17T09:03:50.119Z,5.90
2018-07-17T09:06:19.293Z,5.40
2018-07-17T09:08:48.454Z,5.40
2018-07-17T09:11:17.707Z,5.13
2018-07-17T09:13:47.862Z,6.33
2018-07-17T09:16:17.550Z,4.90
2018-07-17T09:18:46.758Z,4.83
2018-07-17T09:21:16.005Z,4.67
2018-07-17T09:23:45.212Z,4.63
2018-07-17T09:26:15.105Z,4.53
2018-07-17T09:28:44.884Z,4.87
2018-07-17T09:31:14.156Z,5.00
2018-07-17T09:33:43.416Z,4.97
2018-07-17T09:36:12.865Z,5.40
2018-07-17T09:38:41.983Z,4.78
2018-07-17T09:41:11.205Z,5.00
2018-07-17T09:43:40.360Z,4.80
2018-07-17T09:46:09.216Z,5.70
2018-07-17T09:48:38.367Z,5.00
2018-07-17T09:51:08.124Z,4.55
2018-07-17T09:53:37.350Z,5.37
2018-07-17T09:56:06.801Z,4.87
2018-07-17T09:58:35.862Z,4.95
2018-07-17T10:01:10.422Z,5.60
2018-07-17T10:03:39.661Z,5.12
2018-07-17T10:06:08.838Z,4.90
2018-07-17T10:08:37.948Z,5.22
2018-07-17T10:11:07.111Z,5.35
2018-07-17T10:13:36.236Z,5.17
2018-07-17T10:16:05.472Z,5.40
2018-07-17T10:18:34.645Z,5.50
2018-07-17T10:21:03.793Z,5.80
2018-07-17T10:23:33.743Z,6.67
2018-07-17T10:26:02.880Z,5.40
2018-07-17T10:28:32.058Z,6.00
2018-07-17T10:31:01.185Z,6.62
2018-07-17T10:33:30.348Z,6.70
2018-07-17T10:35:59.616Z,5.72
2018-07-17T10:38:28.824Z,5.10
2018-07-17T10:40:58.056Z,5.17
2018-07-17T10:43:27.263Z,4.95
2018-07-17T10:45:56.443Z,4.92
2018-07-17T10:48:25.897Z,4.70
2018-07-17T10:50:55.096Z,4.90
2018-07-17T10:53:24.271Z,5.55
2018-07-17T10:55:53.404Z,5.95
2018-07-17T10:58:22.502Z,6.62
2018-07-17T11:00:51.693Z,5.97
2018-07-17T11:03:28.383Z,6.12
2018-07-17T11:05:57.578Z,6.92
2018-07-17T11:08:26.777Z,6.58
2018-07-17T11:10:55.910Z,7.37
2018-07-17T11:13:25.132Z,6.80
2018-07-17T11:15:55.088Z,5.95
2018-07-17T11:18:24.192Z,5.08
2018-07-17T11:20:53.408Z,4.83
2018-07-17T11:23:22.563Z,4.62
2018-07-17T11:25:51.810Z,5.03
2018-07-17T11:28:20.948Z,4.70
2018-07-17T11:30:50.136Z,4.87
2018-07-17T11:33:19.316Z,4.50
2018-07-17T11:35:48.439Z,5.37
2018-07-17T11:38:17.639Z,5.00
2018-07-17T11:40:46.835Z,4.72
2018-07-17T11:43:16.112Z,4.92
2018-07-17T11:45:45.324Z,4.30
2018-07-17T11:48:14.744Z,4.35
2018-07-17T11:50:43.556Z,4.45
2018-07-17T11:53:12.660Z,4.50
2018-07-17T11:55:41.949Z,4.17
2018-07-17T11:58:11.091Z,4.70
2018-07-17T12:00:40.284Z,4.60
2018-07-17T12:03:09.563Z,4.80
2018-07-17T12:05:38.769Z,5.15
2018-07-17T12:08:07.910Z,4.60
2018-07-17T12:10:37.805Z,4.37
2018-07-17T12:13:07.011Z,5.17
2018-07-17T12:15:36.184Z,4.67
2018-07-17T12:18:05.552Z,5.35
2018-07-17T12:20:34.874Z,5.70
2018-07-17T12:23:03.928Z,5.58
2018-07-17T12:25:33.112Z,6.22
2018-07-17T12:28:02.599Z,6.25
2018-07-17T12:30:31.793Z,7.08
2018-07-17T12:33:00.988Z,6.95
2018-07-17T12:35:30.203Z,6.72
2018-07-17T12:37:59.385Z,6.00
2018-07-17T12:40:28.593Z,5.20
2018-07-17T12:42:57.779Z,4.72
2018-07-17T12:45:26.955Z,4.15
2018-07-17T12:47:56.088Z,3.87
2018-07-17T12:50:25.746Z,4.00
2018-07-17T12:52:54.965Z,3.90
2018-07-17T12:55:24.198Z,3.50
2018-07-17T12:57:53.424Z,3.50
2018-07-17T13:00:22.564Z,3.85
2018-07-17T13:02:51.777Z,3.45
2018-07-17T13:05:20.946Z,3.35
2018-07-17T13:07:50.173Z,3.10
2018-07-17T13:10:19.425Z,3.17
2018-07-17T13:12:48.579Z,3.52
2018-07-17T13:15:18.017Z,3.80
2018-07-17T13:17:47.214Z,3.22
2018-07-17T13:20:16.387Z,2.90
2018-07-17T13:22:45.652Z,3.12
2018-07-17T13:25:14.813Z,3.22
2018-07-17T13:27:43.980Z,3.60
2018-07-17T13:30:13.177Z,3.80
2018-07-17T13:32:42.938Z,3.60
2018-07-17T13:35:12.093Z,3.50
2018-07-17T13:37:41.265Z,4.03
2018-07-17T13:40:10.775Z,5.17
2018-07-17T13:42:39.964Z,4.72
2018-07-17T13:45:09.123Z,5.53
2018-07-17T13:47:38.432Z,6.12
2018-07-17T13:50:07.662Z,6.45
2018-07-17T13:52:36.880Z,6.28
2018-07-17T13:55:06.797Z,7.65
2018-07-17T13:57:35.944Z,8.18
2018-07-17T14:00:06.513Z,9.30
2018-07-17T14:02:35.561Z,7.73
2018-07-17T14:05:05.105Z,7.13
2018-07-17T14:07:34.190Z,6.73
2018-07-17T14:10:03.490Z,6.95
2018-07-17T14:12:32.688Z,6.73
2018-07-17T14:15:01.898Z,6.47
2018-07-17T14:17:31.130Z,6.00
2018-07-17T14:20:00.184Z,5.57
2018-07-17T14:22:29.440Z,5.77
2018-07-17T14:24:58.672Z,5.87
2018-07-17T14:27:27.997Z,5.40
2018-07-17T14:29:57.210Z,5.33
2018-07-17T14:32:26.429Z,5.30
2018-07-17T14:34:55.689Z,5.40
2018-07-17T14:37:24.993Z,5.30
2018-07-17T14:39:54.186Z,5.83
2018-07-17T14:42:23.364Z,6.30
2018-07-17T14:44:52.505Z,5.63
2018-07-17T14:47:21.779Z,7.03
2018-07-17T14:49:50.948Z,7.20
2018-07-17T14:52:19.809Z,7.33
2018-07-17T14:54:48.855Z,7.00
2018-07-17T14:57:18.152Z,7.73
2018-07-17T14:59:47.699Z,7.30
2018-07-17T15:02:16.906Z,8.20
2018-07-17T15:04:46.122Z,13.40
2018-07-17T15:07:15.260Z,9.40
2018-07-17T15:09:44.512Z,10.67
2018-07-17T15:12:13.678Z,10.37
2018-07-17T15:14:42.884Z,8.77
2018-07-17T15:17:12.035Z,8.70
2018-07-17T15:19:41.288Z,9.50
2018-07-17T15:22:10.472Z,11.50
2018-07-17T15:24:39.680Z,10.97
2018-07-17T15:27:08.942Z,12.37
2018-07-17T15:29:38.128Z,11.77
2018-07-17T15:32:07.416Z,10.10
2018-07-17T15:34:36.716Z,10.33
2018-07-17T15:37:05.926Z,10.83
2018-07-17T15:39:35.126Z,9.40
2018-07-17T15:42:04.338Z,10.13
2018-07-17T15:44:33.607Z,10.03
2018-07-17T15:47:02.759Z,10.03
2018-07-17T15:49:32.729Z,11.07
2018-07-17T15:52:01.954Z,11.50
2018-07-17T15:54:31.272Z,11.90
2018-07-17T15:57:00.527Z,11.50
2018-07-17T15:59:30.419Z,10.63
2018-07-17T16:01:59.666Z,11.47
2018-07-17T16:04:28.978Z,11.40
2018-07-17T16:06:58.161Z,11.23
2018-07-17T16:09:28.031Z,10.80
2018-07-17T16:11:57.265Z,10.47
2018-07-17T16:14:26.740Z,11.73
2018-07-17T16:16:56.354Z,11.57
2018-07-17T16:19:25.619Z,11.17
2018-07-17T16:21:54.802Z,11.70
2018-07-17T16:24:30.705Z,12.00
2018-07-17T16:26:59.931Z,12.63
2018-07-17T16:29:29.895Z,12.50
2018-07-17T16:31:59.702Z,13.43
2018-07-17T16:34:29.114Z,12.57
2018-07-17T16:36:58.601Z,13.00
2018-07-17T16:39:27.745Z,13.60
2018-07-17T16:41:57.487Z,13.50
2018-07-17T16:44:26.700Z,12.30
2018-07-17T16:46:57.412Z,13.43
2018-07-17T16:49:26.678Z,13.63
2018-07-17T16:51:55.827Z,13.17
2018-07-17T16:54:25.548Z,14.33
2018-07-17T16:56:55.634Z,13.83
2018-07-17T16:59:24.752Z,14.57
2018-07-17T17:01:54.039Z,14.40
2018-07-17T17:04:23.682Z,14.20
2018-07-17T17:06:52.975Z,14.20
2018-07-17T17:09:22.221Z,14.70
2018-07-17T17:11:51.418Z,15.40
2018-07-17T17:14:20.587Z,14.57
2018-07-17T17:16:49.773Z,15.17
2018-07-17T17:19:18.932Z,15.97
2018-07-17T17:21:48.759Z,15.37
2018-07-17T17:24:18.083Z,14.60
2018-07-17T17:26:47.302Z,14.87
2018-07-17T17:29:16.438Z,14.73
2018-07-17T17:31:45.733Z,14.33
2018-07-17T17:34:14.925Z,13.27
2018-07-17T17:36:44.780Z,12.63
2018-07-17T17:39:13.890Z,12.43
2018-07-17T17:41:43.016Z,13.07
2018-07-17T17:44:12.264Z,12.50
2018-07-17T17:46:41.365Z,11.60
2018-07-17T17:49:10.567Z,11.00
2018-07-17T17:51:39.777Z,10.33
2018-07-17T17:54:08.957Z,12.10
2018-07-17T17:56:38.146Z,10.50
2018-07-17T17:59:07.380Z,10.53
2018-07-17T18:01:36.631Z,10.07
2018-07-17T18:04:06.164Z,9.63
2018-07-17T18:06:35.296Z,9.37
2018-07-17T18:09:06.122Z,10.30
2018-07-17T18:11:35.530Z,9.40
2018-07-17T18:14:04.756Z,9.00
2018-07-17T18:16:34.015Z,8.50
2018-07-17T18:19:03.226Z,8.77
2018-07-17T18:21:32.425Z,8.23
2018-07-17T18:24:01.652Z,8.13
2018-07-17T18:26:30.959Z,7.83
2018-07-17T18:29:00.304Z,7.33
2018-07-17T18:31:30.387Z,7.00
2018-07-17T18:33:59.563Z,7.03
2018-07-17T18:36:28.912Z,6.63
2018-07-17T18:38:58.053Z,6.60
2018-07-17T18:41:27.304Z,5.87
2018-07-17T18:43:56.442Z,6.63
2018-07-17T18:46:25.605Z,6.30
2018-07-17T18:48:54.444Z,6.80
2018-07-17T18:51:23.626Z,7.00
2018-07-17T18:53:52.923Z,6.87
2018-07-17T18:56:21.961Z,6.63
2018-07-17T18:58:51.111Z,7.20
2018-07-17T19:01:20.314Z,6.77
2018-07-17T19:03:49.453Z,7.10
2018-07-17T19:06:18.608Z,7.37
2018-07-17T19:08:47.697Z,7.13
2018-07-17T19:11:16.983Z,6.93
2018-07-17T19:13:46.118Z,6.63
2018-07-17T19:16:15.298Z,7.10
2018-07-17T19:18:44.505Z,6.90
2018-07-17T19:21:13.728Z,6.87
2018-07-17T19:23:42.964Z,7.17
2018-07-17T19:26:12.092Z,7.73
2018-07-17T19:28:41.281Z,6.63
2018-07-17T19:31:10.460Z,7.40
2018-07-17T19:33:39.616Z,8.33
2018-07-17T19:36:08.765Z,7.60
2018-07-17T19:38:37.985Z,7.63
2018-07-17T19:41:07.134Z,7.50
2018-07-17T19:43:36.357Z,7.10
2018-07-17T19:46:05.186Z,8.40
2018-07-17T19:48:34.262Z,8.70
2018-07-17T19:51:03.467Z,8.00
2018-07-17T19:53:32.640Z,8.63
2018-07-17T19:56:01.909Z,8.60
2018-07-17T19:58:31.079Z,9.20
2018-07-17T20:01:00.218Z,9.33
2018-07-17T20:03:29.371Z,9.40
2018-07-17T20:05:58.485Z,10.40
2018-07-17T20:08:27.717Z,9.77
2018-07-17T20:10:56.843Z,10.00
2018-07-17T20:13:25.952Z,11.17
2018-07-17T20:15:55.097Z,11.10
2018-07-17T20:18:24.236Z,10.50
2018-07-17T20:20:53.337Z,10.00
2018-07-17T20:23:22.555Z,10.90
2018-07-17T20:25:51.680Z,10.70
2018-07-17T20:28:20.880Z,11.23
2018-07-17T20:30:50.148Z,11.40
2018-07-17T20:33:19.298Z,11.63
2018-07-17T20:35:48.431Z,11.77
2018-07-17T20:38:17.728Z,12.27
2018-07-17T20:40:46.906Z,13.30
2018-07-17T20:43:16.075Z,13.50
2018-07-17T20:45:45.329Z,13.13
2018-07-17T20:48:14.498Z,13.47
2018-07-17T20:50:43.631Z,13.33
2018-07-17T20:53:12.834Z,14.30
2018-07-17T20:55:42.495Z,14.27
2018-07-17T20:58:11.627Z,13.90
2018-07-17T21:00:40.780Z,14.30
2018-07-17T21:03:09.974Z,14.03
2018-07-17T21:05:39.176Z,14.40
2018-07-17T21:08:08.456Z,14.20
2018-07-17T21:10:37.616Z,15.03
2018-07-17T21:13:06.786Z,15.53
2018-07-17T21:15:35.875Z,15.70
2018-07-17T21:18:07.948Z,15.77
2018-07-17T21:20:37.120Z,17.30
2018-07-17T21:23:06.311Z,17.37
2018-07-17T21:25:35.559Z,18.07
2018-07-17T21:28:05.031Z,17.80
2018-07-17T21:30:34.186Z,18.33
2018-07-17T21:33:03.446Z,17.90
2018-07-17T21:35:32.713Z,18.87
2018-07-17T21:38:01.877Z,18.37
2018-07-17T21:40:31.166Z,19.33
2018-07-17T21:43:01.008Z,19.50
2018-07-17T21:45:30.163Z,19.00
2018-07-17T21:47:59.289Z,20.43
2018-07-17T21:50:28.451Z,21.13
2018-07-17T21:52:57.596Z,22.03
2018-07-17T21:55:26.795Z,22.60
2018-07-17T21:57:56.024Z,22.67
2018-07-17T22:00:25.810Z,22.43
2018-07-17T22:02:54.924Z,22.97
2018-07-17T22:05:24.137Z,21.73
2018-07-17T22:07:53.259Z,22.17
2018-07-17T22:10:22.439Z,22.40
2018-07-17T22:12:51.516Z,21.83
2018-07-17T22:15:20.731Z,22.30
2018-07-17T22:17:49.432Z,21.03
2018-07-17T22:20:18.480Z,21.47
2018-07-17T22:22:48.018Z,22.13
2018-07-17T22:25:17.225Z,19.80
2018-07-17T22:27:46.380Z,20.17
2018-07-17T22:30:15.540Z,20.50
2018-07-17T22:32:44.427Z,21.47
2018-07-17T22:35:13.492Z,20.10
2018-07-17T22:37:42.594Z,20.63
2018-07-17T22:40:11.743Z,20.13
2018-07-17T22:42:40.895Z,20.47
2018-07-17T22:45:10.053Z,19.83
2018-07-17T22:47:39.190Z,19.20
2018-07-17T22:50:08.432Z,18.43
2018-07-17T22:52:37.589Z,18.23
2018-07-17T22:55:06.925Z,17.93
2018-07-17T22:57:36.591Z,17.70
2018-07-17T23:00:06.837Z,17.43
2018-07-17T23:02:35.998Z,17.50
2018-07-17T23:05:05.203Z,17.93
2018-07-17T23:07:34.339Z,18.87
2018-07-17T23:10:04.284Z,18.57
2018-07-17T23:12:33.476Z,17.80
2018-07-17T23:15:02.727Z,18.80
2018-07-17T23:17:31.879Z,18.53
2018-07-17T23:20:01.098Z,18.33
2018-07-17T23:22:43.327Z,18.50
2018-07-17T23:25:12.554Z,17.63
2018-07-17T23:27:41.645Z,17.37
2018-07-17T23:30:10.771Z,16.87
2018-07-17T23:32:39.896Z,16.73
2018-07-17T23:35:09.056Z,17.10
2018-07-17T23:37:38.175Z,16.83
2018-07-17T23:40:07.296Z,16.37
2018-07-17T23:42:36.463Z,17.23
2018-07-17T23:45:06.161Z,16.37
2018-07-17T23:47:35.312Z,16.17
2018-07-17T23:50:04.564Z,17.13
2018-07-17T23:52:33.724Z,16.93
2018-07-17T23:55:03.141Z,17.27
2018-07-17T23:57:32.649Z,17.27
